createdAt,value
2023-09-15T00:00:35.177Z,1009.14
2023-09-15T00:01:35.166Z,1009.15
2023-09-15T00:02:35.193Z,1009.16
2023-09-15T00:03:35.183Z,1009.16
2023-09-15T00:04:35.969Z,1009.17
2023-09-15T00:05:35.188Z,1009.17
2023-09-15T00:06:35.108Z,1009.17
2023-09-15T00:07:35.085Z,1009.17
2023-09-15T00:08:35.093Z,1009.16
2023-09-15T00:09:35.088Z,1009.15
2023-09-15T00:10:35.055Z,1009.15
2023-09-15T00:11:35.063Z,1009.15
2023-09-15T00:12:35.072Z,1009.15
2023-09-15T00:13:35.130Z,1009.16
2023-09-15T00:14:35.017Z,1009.16
2023-09-15T00:15:35.053Z,1009.15
2023-09-15T00:16:35.096Z,1009.14
2023-09-15T00:17:35.001Z,1009.13
2023-09-15T00:18:35.023Z,1009.12
2023-09-15T00:19:34.964Z,1009.12
2023-09-15T00:20:34.948Z,1009.11
2023-09-15T00:21:34.975Z,1009.11
2023-09-15T00:22:34.935Z,1009.12
2023-09-15T00:23:34.914Z,1009.11
2023-09-15T00:24:34.964Z,1009.11
2023-09-15T00:25:34.918Z,1009.11
2023-09-15T00:26:34.895Z,1009.11
2023-09-15T00:27:34.898Z,1009.11
2023-09-15T00:28:34.872Z,1009.10
2023-09-15T00:29:34.885Z,1009.10
2023-09-15T00:30:34.882Z,1009.10
2023-09-15T00:31:34.852Z,1009.10
2023-09-15T00:32:34.869Z,1009.09
2023-09-15T00:33:34.878Z,1009.08
2023-09-15T00:34:34.814Z,1009.07
2023-09-15T00:35:34.818Z,1009.06
2023-09-15T00:36:34.797Z,1009.06
2023-09-15T00:37:34.771Z,1009.06
2023-09-15T00:38:34.766Z,1009.06
2023-09-15T00:39:34.757Z,1009.05
2023-09-15T00:40:34.745Z,1009.04
2023-09-15T00:41:34.744Z,1009.03
2023-09-15T00:42:34.730Z,1009.02
2023-09-15T00:43:34.702Z,1009.02
2023-09-15T00:44:34.717Z,1009.00
2023-09-15T00:45:34.712Z,1009.00
2023-09-15T00:46:34.839Z,1009.00
2023-09-15T00:47:34.661Z,1009.00
2023-09-15T00:48:34.659Z,1009.00
2023-09-15T00:49:34.637Z,1009.01
2023-09-15T00:50:34.648Z,1009.01
2023-09-15T00:51:34.647Z,1009.01
2023-09-15T00:52:34.638Z,1009.00
2023-09-15T00:53:34.609Z,1009.00
2023-09-15T00:54:34.601Z,1008.99
2023-09-15T00:55:34.587Z,1008.99
2023-09-15T00:56:34.566Z,1008.99
2023-09-15T00:57:34.562Z,1008.99
2023-09-15T00:58:34.591Z,1008.98
2023-09-15T00:59:34.543Z,1008.97
2023-09-15T01:00:34.537Z,1008.96
2023-09-15T01:01:34.575Z,1008.95
2023-09-15T01:02:34.542Z,1008.95
2023-09-15T01:03:34.559Z,1008.93
2023-09-15T01:04:34.472Z,1008.93
2023-09-15T01:05:34.487Z,1008.91
2023-09-15T01:06:34.457Z,1008.90
2023-09-15T01:07:34.448Z,1008.89
2023-09-15T01:08:34.446Z,1008.88
2023-09-15T01:09:34.431Z,1008.86
2023-09-15T01:10:34.423Z,1008.85
2023-09-15T01:11:34.414Z,1008.82
2023-09-15T01:12:34.385Z,1008.81
2023-09-15T01:13:34.402Z,1008.80
2023-09-15T01:14:34.377Z,1008.78
2023-09-15T01:15:34.541Z,1008.77
2023-09-15T01:16:34.423Z,1008.75
2023-09-15T01:17:34.383Z,1008.74
2023-09-15T01:18:34.359Z,1008.72
2023-09-15T01:19:34.349Z,1008.72
2023-09-15T01:20:34.326Z,1008.71
2023-09-15T01:21:34.303Z,1008.72
2023-09-15T01:22:34.296Z,1008.71
2023-09-15T01:23:34.294Z,1008.71
2023-09-15T01:24:34.289Z,1008.71
2023-09-15T01:25:34.261Z,1008.71
2023-09-15T01:26:34.256Z,1008.71
2023-09-15T01:27:34.259Z,1008.70
2023-09-15T01:28:34.215Z,1008.70
2023-09-15T01:29:34.214Z,1008.69
2023-09-15T01:30:34.225Z,1008.68
2023-09-15T01:31:34.272Z,1008.67
2023-09-15T01:32:34.183Z,1008.67
2023-09-15T01:33:34.169Z,1008.67
2023-09-15T01:34:34.180Z,1008.67
2023-09-15T01:35:34.177Z,1008.66
2023-09-15T01:36:34.129Z,1008.66
2023-09-15T01:37:34.123Z,1008.65
2023-09-15T01:38:34.130Z,1008.63
2023-09-15T01:39:34.107Z,1008.62
2023-09-15T01:40:34.100Z,1008.61
2023-09-15T01:41:34.084Z,1008.60
2023-09-15T01:42:34.065Z,1008.60
2023-09-15T01:43:34.077Z,1008.58
2023-09-15T01:44:34.049Z,1008.57
2023-09-15T01:45:34.074Z,1008.56
2023-09-15T01:46:34.126Z,1008.56
2023-09-15T01:47:34.053Z,1008.56
2023-09-15T01:48:34.009Z,1008.56
2023-09-15T01:49:33.993Z,1008.56
2023-09-15T01:50:33.984Z,1008.55
2023-09-15T01:51:33.997Z,1008.54
2023-09-15T01:52:33.969Z,1008.54
2023-09-15T01:53:33.957Z,1008.54
2023-09-15T01:54:33.946Z,1008.54
2023-09-15T01:55:33.945Z,1008.55
2023-09-15T01:56:33.945Z,1008.57
2023-09-15T01:57:33.913Z,1008.57
2023-09-15T01:58:33.905Z,1008.58
2023-09-15T01:59:33.906Z,1008.58
2023-09-15T02:00:33.879Z,1008.58
2023-09-15T02:01:33.925Z,1008.58
2023-09-15T02:02:33.893Z,1008.57
2023-09-15T02:03:33.952Z,1008.57
2023-09-15T02:04:33.841Z,1008.56
2023-09-15T02:05:33.816Z,1008.56
2023-09-15T02:06:33.835Z,1008.55
2023-09-15T02:07:33.808Z,1008.54
2023-09-15T02:08:33.795Z,1008.53
2023-09-15T02:09:33.825Z,1008.52
2023-09-15T02:10:33.769Z,1008.51
2023-09-15T02:11:33.797Z,1008.51
2023-09-15T02:12:33.756Z,1008.50
2023-09-15T02:13:33.745Z,1008.51
2023-09-15T02:14:33.743Z,1008.51
2023-09-15T02:15:33.746Z,1008.52
2023-09-15T02:16:33.768Z,1008.52
2023-09-15T02:17:33.718Z,1008.52
2023-09-15T02:18:33.706Z,1008.52
2023-09-15T02:19:33.693Z,1008.52
2023-09-15T02:20:33.690Z,1008.51
2023-09-15T02:21:33.693Z,1008.51
2023-09-15T02:22:33.654Z,1008.51
2023-09-15T02:23:33.636Z,1008.51
2023-09-15T02:24:33.637Z,1008.50
2023-09-15T02:25:33.623Z,1008.50
2023-09-15T02:26:33.629Z,1008.49
2023-09-15T02:27:33.613Z,1008.48
2023-09-15T02:28:33.592Z,1008.48
2023-09-15T02:29:33.571Z,1008.48
2023-09-15T02:30:33.614Z,1008.48
2023-09-15T02:31:33.619Z,1008.47
2023-09-15T02:32:33.549Z,1008.48
2023-09-15T02:33:33.546Z,1008.49
2023-09-15T02:34:33.519Z,1008.49
2023-09-15T02:35:33.513Z,1008.48
2023-09-15T02:36:33.508Z,1008.47
2023-09-15T02:37:33.500Z,1008.46
2023-09-15T02:38:33.480Z,1008.45
2023-09-15T02:39:33.473Z,1008.44
2023-09-15T02:40:33.458Z,1008.44
2023-09-15T02:41:35.022Z,1008.45
2023-09-15T02:42:33.435Z,1008.45
2023-09-15T02:43:33.434Z,1008.45
2023-09-15T02:44:33.401Z,1008.45
2023-09-15T02:45:33.416Z,1008.45
2023-09-15T02:46:33.537Z,1008.44
2023-09-15T02:47:33.399Z,1008.43
2023-09-15T02:48:33.363Z,1008.43
2023-09-15T02:49:33.418Z,1008.41
2023-09-15T02:50:33.354Z,1008.40
2023-09-15T02:51:33.342Z,1008.39
2023-09-15T02:52:33.344Z,1008.38
2023-09-15T02:53:33.305Z,1008.37
2023-09-15T02:54:33.311Z,1008.36
2023-09-15T02:55:33.294Z,1008.35
2023-09-15T02:56:33.280Z,1008.34
2023-09-15T02:57:33.294Z,1008.33
2023-09-15T02:58:33.282Z,1008.32
2023-09-15T02:59:33.264Z,1008.31
2023-09-15T03:00:33.275Z,1008.32
2023-09-15T03:01:33.313Z,1008.31
2023-09-15T03:02:33.370Z,1008.31
2023-09-15T03:03:33.316Z,1008.30
2023-09-15T03:04:33.221Z,1008.29
2023-09-15T03:05:33.270Z,1008.29
2023-09-15T03:06:33.176Z,1008.29
2023-09-15T03:07:33.179Z,1008.29
2023-09-15T03:08:33.245Z,1008.29
2023-09-15T03:09:33.156Z,1008.29
2023-09-15T03:10:33.136Z,1008.28
2023-09-15T03:11:33.252Z,1008.27
2023-09-15T03:12:33.115Z,1008.26
2023-09-15T03:13:33.101Z,1008.25
2023-09-15T03:14:33.171Z,1008.24
2023-09-15T03:15:33.097Z,1008.23
2023-09-15T03:16:33.281Z,1008.23
2023-09-15T03:17:33.220Z,1008.22
2023-09-15T03:18:33.039Z,1008.21
2023-09-15T03:19:33.084Z,1008.20
2023-09-15T03:20:33.036Z,1008.19
2023-09-15T03:21:33.104Z,1008.18
2023-09-15T03:22:33.048Z,1008.17
2023-09-15T03:23:33.183Z,1008.16
2023-09-15T03:24:33.097Z,1008.16
2023-09-15T03:25:33.098Z,1008.15
2023-09-15T03:26:32.965Z,1008.14
2023-09-15T03:27:32.953Z,1008.13
2023-09-15T03:28:32.933Z,1008.12
2023-09-15T03:29:32.951Z,1008.13
2023-09-15T03:30:32.949Z,1008.13
2023-09-15T03:31:32.978Z,1008.12
2023-09-15T03:32:32.926Z,1008.11
2023-09-15T03:33:32.901Z,1008.10
2023-09-15T03:34:32.912Z,1008.08
2023-09-15T03:35:32.883Z,1008.07
2023-09-15T03:36:32.851Z,1008.07
2023-09-15T03:37:32.860Z,1008.05
2023-09-15T03:38:32.837Z,1008.05
2023-09-15T03:39:33.001Z,1008.04
2023-09-15T03:40:32.828Z,1008.04
2023-09-15T03:41:32.809Z,1008.04
2023-09-15T03:42:32.853Z,1008.04
2023-09-15T03:43:32.791Z,1008.03
2023-09-15T03:44:32.770Z,1008.02
2023-09-15T03:45:32.851Z,1008.01
2023-09-15T03:46:32.875Z,1008.01
2023-09-15T03:47:32.762Z,1008.02
2023-09-15T03:48:32.791Z,1008.03
2023-09-15T03:49:32.727Z,1008.04
2023-09-15T03:50:32.706Z,1008.04
2023-09-15T03:51:32.739Z,1008.05
2023-09-15T03:52:32.686Z,1008.05
2023-09-15T03:53:32.670Z,1008.05
2023-09-15T03:54:32.659Z,1008.05
2023-09-15T03:55:32.654Z,1008.05
2023-09-15T03:56:32.666Z,1008.04
2023-09-15T03:57:32.636Z,1008.03
2023-09-15T03:58:32.622Z,1008.03
2023-09-15T03:59:32.616Z,1008.02
2023-09-15T04:00:32.598Z,1008.02
2023-09-15T04:01:32.692Z,1008.03
2023-09-15T04:02:32.612Z,1008.03
2023-09-15T04:03:32.622Z,1008.03
2023-09-15T04:04:32.687Z,1008.02
2023-09-15T04:05:32.556Z,1008.01
2023-09-15T04:06:32.562Z,1007.99
2023-09-15T04:07:32.607Z,1007.99
2023-09-15T04:08:32.531Z,1007.99
2023-09-15T04:09:32.540Z,1007.99
2023-09-15T04:10:32.685Z,1007.99
2023-09-15T04:11:32.506Z,1007.98
2023-09-15T04:12:32.554Z,1007.97
2023-09-15T04:13:32.448Z,1007.96
2023-09-15T04:14:32.481Z,1007.96
2023-09-15T04:15:32.498Z,1007.95
2023-09-15T04:16:32.516Z,1007.94
2023-09-15T04:17:32.475Z,1007.93
2023-09-15T04:18:32.395Z,1007.92
2023-09-15T04:19:32.495Z,1007.91
2023-09-15T04:20:43.624Z,1007.90
2023-09-15T04:21:32.411Z,1007.90
2023-09-15T04:22:32.376Z,1007.90
2023-09-15T04:23:32.367Z,1007.90
2023-09-15T04:24:32.343Z,1007.90
2023-09-15T04:25:32.350Z,1007.90
2023-09-15T04:26:32.342Z,1007.90
2023-09-15T04:27:32.318Z,1007.91
2023-09-15T04:28:32.310Z,1007.91
2023-09-15T04:29:32.286Z,1007.92
2023-09-15T04:30:32.279Z,1007.91
2023-09-15T04:31:32.442Z,1007.91
2023-09-15T04:32:32.310Z,1007.91
2023-09-15T04:33:32.272Z,1007.91
2023-09-15T04:34:32.178Z,1007.92
2023-09-15T04:35:32.194Z,1007.94
2023-09-15T04:36:32.148Z,1007.95
2023-09-15T04:37:32.185Z,1007.97
2023-09-15T04:38:32.138Z,1007.99
2023-09-15T04:39:32.129Z,1008.01
2023-09-15T04:40:32.121Z,1008.02
2023-09-15T04:41:32.112Z,1008.03
2023-09-15T04:42:32.095Z,1008.03
2023-09-15T04:43:32.094Z,1008.02
2023-09-15T04:44:32.062Z,1008.02
2023-09-15T04:45:32.066Z,1008.02
2023-09-15T04:46:32.184Z,1008.03
2023-09-15T04:47:32.075Z,1008.03
2023-09-15T04:48:32.068Z,1008.03
2023-09-15T04:49:32.168Z,1008.02
2023-09-15T04:50:32.035Z,1008.01
2023-09-15T04:51:32.015Z,1008.01
2023-09-15T04:52:32.001Z,1008.01
2023-09-15T04:53:31.973Z,1008.00
2023-09-15T04:54:31.973Z,1008.00
2023-09-15T04:55:31.974Z,1008.00
2023-09-15T04:56:31.977Z,1007.99
2023-09-15T04:57:31.938Z,1007.99
2023-09-15T04:58:31.921Z,1007.99
2023-09-15T04:59:31.922Z,1008.00
2023-09-15T05:00:31.904Z,1008.00
2023-09-15T05:01:31.955Z,1008.00
2023-09-15T05:02:31.909Z,1008.01
2023-09-15T05:03:31.925Z,1008.00
2023-09-15T05:04:31.881Z,1008.01
2023-09-15T05:05:31.873Z,1008.02
2023-09-15T05:06:31.841Z,1008.02
2023-09-15T05:07:31.868Z,1008.03
2023-09-15T05:08:31.832Z,1008.04
2023-09-15T05:09:31.804Z,1008.05
2023-09-15T05:10:31.873Z,1008.05
2023-09-15T05:11:31.776Z,1008.06
2023-09-15T05:12:31.795Z,1008.07
2023-09-15T05:13:31.815Z,1008.07
2023-09-15T05:14:33.890Z,1008.06
2023-09-15T05:15:31.748Z,1008.06
2023-09-15T05:16:31.790Z,1008.05
2023-09-15T05:17:31.744Z,1008.04
2023-09-15T05:18:31.731Z,1008.04
2023-09-15T05:19:31.699Z,1008.03
2023-09-15T05:20:31.742Z,1008.03
2023-09-15T05:21:31.676Z,1008.02
2023-09-15T05:22:31.683Z,1008.02
2023-09-15T05:23:31.767Z,1008.01
2023-09-15T05:24:31.657Z,1008.00
2023-09-15T05:25:31.688Z,1007.99
2023-09-15T05:26:31.636Z,1007.97
2023-09-15T05:27:31.612Z,1007.96
2023-09-15T05:28:31.713Z,1007.94
2023-09-15T05:29:31.618Z,1007.92
2023-09-15T05:30:31.608Z,1007.92
2023-09-15T05:31:31.697Z,1007.92
2023-09-15T05:32:31.575Z,1007.92
2023-09-15T05:33:31.595Z,1007.91
2023-09-15T05:34:31.639Z,1007.91
2023-09-15T05:35:31.537Z,1007.91
2023-09-15T05:36:31.547Z,1007.92
2023-09-15T05:37:31.623Z,1007.92
2023-09-15T05:38:31.548Z,1007.92
2023-09-15T05:39:31.487Z,1007.92
2023-09-15T05:40:31.528Z,1007.92
2023-09-15T05:41:31.635Z,1007.92
2023-09-15T05:42:31.500Z,1007.91
2023-09-15T05:43:31.507Z,1007.91
2023-09-15T05:44:31.452Z,1007.91
2023-09-15T05:45:31.450Z,1007.91
2023-09-15T05:46:31.624Z,1007.92
2023-09-15T05:47:31.458Z,1007.93
2023-09-15T05:48:31.451Z,1007.95
2023-09-15T05:49:31.457Z,1007.96
2023-09-15T05:50:31.382Z,1007.97
2023-09-15T05:51:31.367Z,1007.98
2023-09-15T05:52:31.585Z,1007.98
2023-09-15T05:53:31.359Z,1007.99
2023-09-15T05:54:31.362Z,1007.99
2023-09-15T05:55:31.557Z,1008.00
2023-09-15T05:56:31.329Z,1008.01
2023-09-15T05:57:31.297Z,1008.01
2023-09-15T05:58:31.490Z,1008.02
2023-09-15T05:59:31.286Z,1008.02
2023-09-15T06:00:31.395Z,1008.02
2023-09-15T06:01:31.498Z,1008.01
2023-09-15T06:02:31.287Z,1008.01
2023-09-15T06:03:31.271Z,1008.00
2023-09-15T06:04:31.457Z,1008.00
2023-09-15T06:05:31.205Z,1008.00
2023-09-15T06:06:31.213Z,1008.00
2023-09-15T06:07:31.232Z,1007.99
2023-09-15T06:08:31.200Z,1008.00
2023-09-15T06:09:31.189Z,1008.02
2023-09-15T06:10:31.223Z,1008.03
2023-09-15T06:11:31.157Z,1008.04
2023-09-15T06:12:31.156Z,1008.05
2023-09-15T06:13:31.211Z,1008.05
2023-09-15T06:14:31.124Z,1008.05
2023-09-15T06:15:31.133Z,1008.04
2023-09-15T06:16:31.183Z,1008.03
2023-09-15T06:17:31.138Z,1008.02
2023-09-15T06:18:31.097Z,1008.02
2023-09-15T06:19:31.087Z,1008.02
2023-09-15T06:20:31.091Z,1008.02
2023-09-15T06:21:31.113Z,1008.03
2023-09-15T06:22:31.076Z,1008.04
2023-09-15T06:23:31.051Z,1008.04
2023-09-15T06:24:31.057Z,1008.05
2023-09-15T06:25:31.036Z,1008.07
2023-09-15T06:26:30.990Z,1008.06
2023-09-15T06:27:31.028Z,1008.06
2023-09-15T06:28:31.059Z,1008.06
2023-09-15T06:29:31.064Z,1008.07
2023-09-15T06:30:31.143Z,1008.06
2023-09-15T06:31:31.022Z,1008.08
2023-09-15T06:32:31.001Z,1008.08
2023-09-15T06:33:30.938Z,1008.09
2023-09-15T06:34:30.948Z,1008.09
2023-09-15T06:35:30.906Z,1008.09
2023-09-15T06:36:30.976Z,1008.10
2023-09-15T06:37:30.935Z,1008.10
2023-09-15T06:38:30.859Z,1008.10
2023-09-15T06:39:30.913Z,1008.10
2023-09-15T06:40:30.903Z,1008.10
2023-09-15T06:41:30.847Z,1008.09
2023-09-15T06:42:30.875Z,1008.08
2023-09-15T06:43:30.890Z,1008.08
2023-09-15T06:44:30.811Z,1008.08
2023-09-15T06:45:30.985Z,1008.08
2023-09-15T06:46:30.901Z,1008.07
2023-09-15T06:47:30.837Z,1008.07
2023-09-15T06:48:30.823Z,1008.05
2023-09-15T06:49:30.802Z,1008.05
2023-09-15T06:50:30.774Z,1008.04
2023-09-15T06:51:30.787Z,1008.04
2023-09-15T06:52:30.807Z,1008.02
2023-09-15T06:53:30.717Z,1008.03
2023-09-15T06:54:30.810Z,1008.02
2023-09-15T06:55:30.738Z,1008.02
2023-09-15T06:56:30.673Z,1008.03
2023-09-15T06:57:30.752Z,1008.03
2023-09-15T06:58:30.722Z,1008.03
2023-09-15T06:59:30.646Z,1008.03
2023-09-15T07:00:30.718Z,1008.03
2023-09-15T07:01:30.668Z,1008.02
2023-09-15T07:02:30.665Z,1008.03
2023-09-15T07:03:30.658Z,1008.03
2023-09-15T07:04:30.678Z,1008.03
2023-09-15T07:05:30.587Z,1008.02
2023-09-15T07:06:30.632Z,1008.01
2023-09-15T07:07:30.593Z,1008.00
2023-09-15T07:08:30.560Z,1007.99
2023-09-15T07:09:30.581Z,1007.97
2023-09-15T07:10:30.580Z,1007.95
2023-09-15T07:11:30.536Z,1007.93
2023-09-15T07:12:30.572Z,1007.92
2023-09-15T07:13:30.528Z,1007.90
2023-09-15T07:14:30.481Z,1007.91
2023-09-15T07:15:30.527Z,1007.92
2023-09-15T07:16:30.557Z,1007.93
2023-09-15T07:17:30.562Z,1007.95
2023-09-15T07:18:30.537Z,1007.95
2023-09-15T07:19:30.486Z,1007.94
2023-09-15T07:20:30.422Z,1007.94
2023-09-15T07:21:30.451Z,1007.93
2023-09-15T07:22:30.404Z,1007.92
2023-09-15T07:23:30.421Z,1007.92
2023-09-15T07:24:30.434Z,1007.92
2023-09-15T07:25:30.444Z,1007.92
2023-09-15T07:26:30.356Z,1007.91
2023-09-15T07:27:30.428Z,1007.90
2023-09-15T07:28:30.411Z,1007.90
2023-09-15T07:29:30.344Z,1007.89
2023-09-15T07:30:30.400Z,1007.89
2023-09-15T07:31:30.396Z,1007.88
2023-09-15T07:32:30.385Z,1007.87
2023-09-15T07:33:30.337Z,1007.87
2023-09-15T07:34:30.324Z,1007.88
2023-09-15T07:35:30.260Z,1007.88
2023-09-15T07:36:30.255Z,1007.88
2023-09-15T07:37:30.305Z,1007.89
2023-09-15T07:38:31.439Z,1007.88
2023-09-15T07:39:30.264Z,1007.88
2023-09-15T07:40:30.242Z,1007.88
2023-09-15T07:41:30.200Z,1007.88
2023-09-15T07:42:30.198Z,1007.89
2023-09-15T07:43:30.230Z,1007.88
2023-09-15T07:44:30.222Z,1007.88
2023-09-15T07:45:30.205Z,1007.89
2023-09-15T07:46:30.275Z,1007.90
2023-09-15T07:47:30.170Z,1007.92
2023-09-15T07:48:30.118Z,1007.94
2023-09-15T07:49:30.180Z,1007.94
2023-09-15T07:50:30.127Z,1007.94
2023-09-15T07:51:30.124Z,1007.94
2023-09-15T07:52:30.171Z,1007.93
2023-09-15T07:53:30.097Z,1007.91
2023-09-15T07:54:30.082Z,1007.91
2023-09-15T07:55:30.101Z,1007.90
2023-09-15T07:56:30.044Z,1007.90
2023-09-15T07:57:30.060Z,1007.89
2023-09-15T07:58:30.148Z,1007.87
2023-09-15T07:59:30.021Z,1007.86
2023-09-15T08:00:30.017Z,1007.85
2023-09-15T08:01:30.649Z,1007.85
2023-09-15T08:02:30.090Z,1007.84
2023-09-15T08:03:29.997Z,1007.84
2023-09-15T08:04:30.136Z,1007.84
2023-09-15T08:05:29.948Z,1007.82
2023-09-15T08:06:29.954Z,1007.80
2023-09-15T08:07:30.007Z,1007.79
2023-09-15T08:08:29.936Z,1007.78
2023-09-15T08:09:29.931Z,1007.76
2023-09-15T08:10:29.959Z,1007.74
2023-09-15T08:11:29.880Z,1007.72
2023-09-15T08:12:29.866Z,1007.71
2023-09-15T08:13:29.932Z,1007.69
2023-09-15T08:14:29.842Z,1007.68
2023-09-15T08:15:29.856Z,1007.66
2023-09-15T08:16:29.918Z,1007.64
2023-09-15T08:17:34.180Z,1007.62
2023-09-15T08:18:29.875Z,1007.60
2023-09-15T08:19:29.903Z,1007.59
2023-09-15T08:20:29.803Z,1007.57
2023-09-15T08:21:29.774Z,1007.57
2023-09-15T08:22:29.849Z,1007.56
2023-09-15T08:23:29.742Z,1007.55
2023-09-15T08:24:29.752Z,1007.54
2023-09-15T08:25:29.843Z,1007.54
2023-09-15T08:26:38.955Z,1007.54
2023-09-15T08:27:29.818Z,1007.54
2023-09-15T08:28:29.787Z,1007.55
2023-09-15T08:29:29.683Z,1007.56
2023-09-15T08:30:29.703Z,1007.57
2023-09-15T08:31:29.809Z,1007.57
2023-09-15T08:32:29.673Z,1007.57
2023-09-15T08:33:29.628Z,1007.58
2023-09-15T08:34:29.711Z,1007.58
2023-09-15T08:35:29.628Z,1007.58
2023-09-15T08:36:29.613Z,1007.58
2023-09-15T08:37:29.694Z,1007.59
2023-09-15T08:38:29.584Z,1007.59
2023-09-15T08:39:29.572Z,1007.58
2023-09-15T08:40:29.653Z,1007.58
2023-09-15T08:41:29.558Z,1007.59
2023-09-15T08:42:29.541Z,1007.60
2023-09-15T08:43:31.052Z,1007.60
2023-09-15T08:44:29.522Z,1007.62
2023-09-15T08:45:29.534Z,1007.62
2023-09-15T08:46:29.591Z,1007.61
2023-09-15T08:47:29.550Z,1007.60
2023-09-15T08:48:29.462Z,1007.60
2023-09-15T08:49:29.538Z,1007.59
2023-09-15T08:50:29.460Z,1007.59
2023-09-15T08:51:29.442Z,1007.58
2023-09-15T08:52:29.505Z,1007.58
2023-09-15T08:53:29.410Z,1007.57
2023-09-15T08:54:29.419Z,1007.57
2023-09-15T08:55:29.466Z,1007.56
2023-09-15T08:56:29.380Z,1007.57
2023-09-15T08:57:29.475Z,1007.58
2023-09-15T08:58:29.456Z,1007.59
2023-09-15T08:59:29.341Z,1007.59
2023-09-15T09:00:29.361Z,1007.59
2023-09-15T09:01:29.480Z,1007.58
2023-09-15T09:02:29.459Z,1007.58
2023-09-15T09:03:29.418Z,1007.58
2023-09-15T09:04:29.373Z,1007.58
2023-09-15T09:05:29.288Z,1007.57
2023-09-15T09:06:29.311Z,1007.55
2023-09-15T09:07:29.361Z,1007.54
2023-09-15T09:08:29.271Z,1007.54
2023-09-15T09:09:29.238Z,1007.53
2023-09-15T09:10:29.330Z,1007.51
2023-09-15T09:11:29.230Z,1007.50
2023-09-15T09:12:29.217Z,1007.48
2023-09-15T09:13:41.577Z,1007.46
2023-09-15T09:14:29.196Z,1007.45
2023-09-15T09:15:29.168Z,1007.44
2023-09-15T09:16:29.319Z,1007.43
2023-09-15T09:17:29.323Z,1007.44
2023-09-15T09:18:29.153Z,1007.41
2023-09-15T09:19:29.217Z,1007.41
2023-09-15T09:20:29.119Z,1007.40
2023-09-15T09:21:29.145Z,1007.39
2023-09-15T09:22:29.368Z,1007.36
2023-09-15T09:23:29.097Z,1007.36
2023-09-15T09:24:29.089Z,1007.35
2023-09-15T09:25:29.161Z,1007.36
2023-09-15T09:26:29.069Z,1007.38
2023-09-15T09:27:29.087Z,1007.39
2023-09-15T09:28:29.133Z,1007.40
2023-09-15T09:29:29.053Z,1007.41
2023-09-15T09:30:29.031Z,1007.41
2023-09-15T09:31:29.178Z,1007.41
2023-09-15T09:32:29.053Z,1007.42
2023-09-15T09:33:29.012Z,1007.43
2023-09-15T09:34:46.471Z,1007.41
2023-09-15T09:35:29.021Z,1007.38
2023-09-15T09:36:28.958Z,1007.39
2023-09-15T09:37:29.017Z,1007.35
2023-09-15T09:38:28.941Z,1007.34
2023-09-15T09:39:28.995Z,1007.32
2023-09-15T09:40:28.963Z,1007.31
2023-09-15T09:41:30.260Z,1007.30
2023-09-15T09:42:28.946Z,1007.29
2023-09-15T09:43:28.933Z,1007.28
2023-09-15T09:44:28.890Z,1007.29
2023-09-15T09:45:28.921Z,1007.29
2023-09-15T09:46:28.941Z,1007.28
2023-09-15T09:47:28.908Z,1007.28
2023-09-15T09:48:29.083Z,1007.28
2023-09-15T09:49:28.862Z,1007.28
2023-09-15T09:50:28.926Z,1007.27
2023-09-15T09:51:28.840Z,1007.25
2023-09-15T09:52:28.836Z,1007.24
2023-09-15T09:53:28.795Z,1007.24
2023-09-15T09:54:28.903Z,1007.24
2023-09-15T09:55:28.854Z,1007.25
2023-09-15T09:56:28.752Z,1007.26
2023-09-15T09:57:28.771Z,1007.25
2023-09-15T09:58:28.775Z,1007.23
2023-09-15T09:59:28.726Z,1007.23
2023-09-15T10:00:28.762Z,1007.22
2023-09-15T10:01:28.832Z,1007.20
2023-09-15T10:02:28.739Z,1007.20
2023-09-15T10:03:28.757Z,1007.19
2023-09-15T10:04:28.698Z,1007.19
2023-09-15T10:05:28.671Z,1007.20
2023-09-15T10:06:28.697Z,1007.20
2023-09-15T10:07:28.684Z,1007.21
2023-09-15T10:08:28.621Z,1007.21
2023-09-15T10:09:28.642Z,1007.21
2023-09-15T10:10:28.632Z,1007.21
2023-09-15T10:11:28.610Z,1007.21
2023-09-15T10:12:28.619Z,1007.20
2023-09-15T10:13:28.605Z,1007.20
2023-09-15T10:14:28.554Z,1007.19
2023-09-15T10:15:28.668Z,1007.18
2023-09-15T10:16:28.636Z,1007.16
2023-09-15T10:17:28.562Z,1007.14
2023-09-15T10:18:28.539Z,1007.12
2023-09-15T10:19:28.574Z,1007.12
2023-09-15T10:20:28.484Z,1007.13
2023-09-15T10:21:28.509Z,1007.14
2023-09-15T10:22:28.526Z,1007.15
2023-09-15T10:23:28.462Z,1007.16
2023-09-15T10:24:28.502Z,1007.15
2023-09-15T10:25:28.465Z,1007.13
2023-09-15T10:26:28.429Z,1007.11
2023-09-15T10:27:28.418Z,1007.08
2023-09-15T10:28:42.096Z,1007.08
2023-09-15T10:29:28.403Z,1007.06
2023-09-15T10:30:28.449Z,1007.06
2023-09-15T10:31:28.508Z,1007.06
2023-09-15T10:32:28.376Z,1007.04
2023-09-15T10:33:28.389Z,1007.04
2023-09-15T10:34:28.387Z,1007.05
2023-09-15T10:35:28.331Z,1007.04
2023-09-15T10:36:28.359Z,1007.06
2023-09-15T10:37:28.381Z,1007.03
2023-09-15T10:38:28.293Z,1007.02
2023-09-15T10:39:28.328Z,1007.01
2023-09-15T10:40:28.318Z,1006.98
2023-09-15T10:41:28.278Z,1006.97
2023-09-15T10:42:28.296Z,1006.95
2023-09-15T10:43:28.356Z,1006.94
2023-09-15T10:44:28.250Z,1006.92
2023-09-15T10:45:28.235Z,1006.93
2023-09-15T10:46:28.303Z,1006.91
2023-09-15T10:47:28.298Z,1006.91
2023-09-15T10:48:28.235Z,1006.90
2023-09-15T10:49:28.223Z,1006.90
2023-09-15T10:50:28.170Z,1006.91
2023-09-15T10:51:28.214Z,1006.90
2023-09-15T10:52:28.202Z,1006.91
2023-09-15T10:53:28.144Z,1006.90
2023-09-15T10:54:28.152Z,1006.89
2023-09-15T10:55:28.171Z,1006.87
2023-09-15T10:56:28.108Z,1006.87
2023-09-15T10:57:28.150Z,1006.86
2023-09-15T10:58:28.127Z,1006.87
2023-09-15T10:59:28.108Z,1006.86
2023-09-15T11:00:28.149Z,1006.86
2023-09-15T11:01:28.110Z,1006.85
2023-09-15T11:02:28.119Z,1006.85
2023-09-15T11:03:28.084Z,1006.84
2023-09-15T11:04:28.046Z,1006.84
2023-09-15T11:05:28.027Z,1006.83
2023-09-15T11:06:28.080Z,1006.81
2023-09-15T11:07:27.999Z,1006.79
2023-09-15T11:08:28.075Z,1006.77
2023-09-15T11:09:28.027Z,1006.76
2023-09-15T11:10:27.954Z,1006.74
2023-09-15T11:11:27.956Z,1006.74
2023-09-15T11:12:27.963Z,1006.72
2023-09-15T11:13:27.933Z,1006.70
2023-09-15T11:14:27.947Z,1006.70
2023-09-15T11:15:27.956Z,1006.68
2023-09-15T11:16:31.175Z,1006.67
2023-09-15T11:17:28.002Z,1006.67
2023-09-15T11:18:27.883Z,1006.66
2023-09-15T11:19:27.878Z,1006.66
2023-09-15T11:20:27.876Z,1006.66
2023-09-15T11:21:27.868Z,1006.64
2023-09-15T11:22:27.841Z,1006.62
2023-09-15T11:23:27.872Z,1006.61
2023-09-15T11:24:27.923Z,1006.59
2023-09-15T11:25:27.806Z,1006.57
2023-09-15T11:26:28.772Z,1006.57
2023-09-15T11:27:28.665Z,1006.55
2023-09-15T11:28:27.771Z,1006.55
2023-09-15T11:29:27.796Z,1006.55
2023-09-15T11:30:27.820Z,1006.55
2023-09-15T11:31:27.768Z,1006.55
2023-09-15T11:32:27.754Z,1006.54
2023-09-15T11:33:27.795Z,1006.53
2023-09-15T11:34:27.943Z,1006.50
2023-09-15T11:35:27.702Z,1006.49
2023-09-15T11:36:27.732Z,1006.48
2023-09-15T11:37:27.684Z,1006.47
2023-09-15T11:38:27.683Z,1006.45
2023-09-15T11:39:27.696Z,1006.46
2023-09-15T11:40:27.662Z,1006.44
2023-09-15T11:41:27.631Z,1006.43
2023-09-15T11:42:27.651Z,1006.43
2023-09-15T11:43:27.638Z,1006.42
2023-09-15T11:44:27.648Z,1006.42
2023-09-15T11:45:27.709Z,1006.44
2023-09-15T11:46:27.637Z,1006.44
2023-09-15T11:47:27.676Z,1006.43
2023-09-15T11:48:27.600Z,1006.41
2023-09-15T11:49:27.553Z,1006.39
2023-09-15T11:50:27.539Z,1006.38
2023-09-15T11:51:27.567Z,1006.34
2023-09-15T11:52:27.519Z,1006.35
2023-09-15T11:53:27.503Z,1006.33
2023-09-15T11:54:27.595Z,1006.32
2023-09-15T11:55:27.494Z,1006.31
2023-09-15T11:56:27.460Z,1006.31
2023-09-15T11:57:27.512Z,1006.31
2023-09-15T11:58:27.458Z,1006.31
2023-09-15T11:59:27.445Z,1006.30
2023-09-15T12:00:27.508Z,1006.27
2023-09-15T12:01:27.472Z,1006.27
2023-09-15T12:02:27.434Z,1006.25
2023-09-15T12:03:27.502Z,1006.25
2023-09-15T12:04:27.487Z,1006.24
2023-09-15T12:05:28.243Z,1006.21